Arpadere, Turkey

11:12 AM +03 on May 27, 2017 (GMT +0300)
Karahidirli | | Change Station

Elev 112 ft 39.04 °N, 27.15 °E | Updated 16 seconds ago

Overcast
Overcast
68.9 °F
Feels Like 68.9 °F
N
2.7
Wind Variable Wind from NW
Gusts 4.9 mph

Today
High -- | Low -- °F
--% Chance of Precip.
Yesterday
High -- | Low -- °F
Precip. -- in
Pressure 29.89 in
Visibility 6.2 miles
Clouds Few 2500 ft
Scattered Clouds 3500 ft
Mostly Cloudy 10000 ft
Dew Point 58 °F
Humidity 67%
Rainfall 0.05 in
Snow Depth Not available.
5:48 AM 8:26 PM
Waxing Crescent, 4% visible
SPECI LTBL 270718Z VRB03KT 9999 TS FEW025CB SCT035 BKN100 22/13 Q1012 TEMPO -TSRA RMK RWY17 VRB03KT
Pressure 29.89 in
Visibility 6.2 miles
Clouds Few 2500 ft
Scattered Clouds 3500 ft
Mostly Cloudy 10000 ft
Dew Point 58 °F
Humidity 67%
Rainfall 0.05 in
Snow Depth Not available.
5:48 AM 8:26 PM
Waxing Crescent, 4% visible
SPECI LTBL 270718Z VRB03KT 9999 TS FEW025CB SCT035 BKN100 22/13 Q1012 TEMPO -TSRA RMK RWY17 VRB03KT

Get Severe Weather Alerts

Thanks for signing up!

Be on the lookout for a verification email in your inbox.

You'll start receiving the daily forecast at 6 AM.

×

10-Day Weather Forecast

×

Almanac

Astronomy

May. 27, 2017 Rise Set
Actual Time
Civil Twilight
Nautical Twilight
Astronomical Twilight
Moon
Length of Visible Light
Length of Day
Tomorrow will be .
, % of the Moon is Illuminated

Today's Extremes

Country Highs Country Lows

Community

WunderPhotos

Category 6

Welcome to Category 6. This is the collective home for Weather Underground's featured writeups by Dr. Jeff Masters (right), Bob Henson (left), Chris Burt, and other regular contributors.

Nearby

Air Quality

  Air Quality AQ Index Pollutant
Not available.

Snow Depth

Station Depth Elevation

Earthquake Activity

City Distance Mag. Time & Date
Minimum magnitude displayed is 2.5.

Coastal Water Temperatures

Place Temperature

Stations

Nearby Weather Stations

Station Location Temp. Windchill Dew Point Humidity Wind Precip. Elev Updated Type